Portada
METAR-TAF:

METAR-TAF

Aeroports :

Bundaberg, Austràlia

latitud: 24-54-14S, longitud: 152-19-07E, altitud: 33 m

Observació

L'informe es va fer fa 18 minuts, a les 05:00 UTC
Vent 11 kt del Est/Nord-Est
Temperatura 29°C
Humitat 55%
Pressió 1010 hPa
Visibilitat 10 km o més
Núvols disperses a una alçada de 3600 ft

METAR: YBUD 120500Z AUTO 06011KT 9999 // SCT036 29/19 Q1010

Hora: 15:18 (05:18 UTC)


TAF: manca

Observacions i pronòstics meteorològics de més de 4000 aeroports (METAR i TAF).

Les estacions disponibles són els punts grocs i vermells al mapa.

Posi el ratolí al punt desitjat per veure el nom de l'estació.

Feu clic per veure les observacions i els pronòstics meteorològics.

Per canviar el mapa: feu clic els botons verds amb una creu de color negre per apropar; al botó verd amb un guió per allunyar la imatge; o en les fletxes verdes per a mapes adjacents.


METAR-TAF: